sensor_id;sensor_type;location;lat;lon;timestamp;P1;durP1;ratioP1;P2;durP2;ratioP2
53245;SDS011;39569;51.090;-1.786;2023-05-28T00:00:48;21.92;;;12.50;;
53245;SDS011;39569;51.090;-1.786;2023-05-28T00:03:15;15.52;;;11.85;;
53245;SDS011;39569;51.090;-1.786;2023-05-28T00:05:45;19.30;;;13.25;;
53245;SDS011;39569;51.090;-1.786;2023-05-28T00:08:12;16.35;;;12.82;;
53245;SDS011;39569;51.090;-1.786;2023-05-28T00:10:40;15.15;;;11.95;;
53245;SDS011;39569;51.090;-1.786;2023-05-28T00:13:07;15.23;;;10.65;;
53245;SDS011;39569;51.090;-1.786;2023-05-28T00:15:34;23.95;;;11.73;;
53245;SDS011;39569;51.090;-1.786;2023-05-28T00:18:02;12.90;;;11.65;;
53245;SDS011;39569;51.090;-1.786;2023-05-28T00:20:29;18.33;;;12.30;;
53245;SDS011;39569;51.090;-1.786;2023-05-28T00:22:57;11.63;;;10.50;;
53245;SDS011;39569;51.090;-1.786;2023-05-28T00:25:24;13.25;;;11.70;;
53245;SDS011;39569;51.090;-1.786;2023-05-28T00:27:50;23.92;;;12.55;;
53245;SDS011;39569;51.090;-1.786;2023-05-28T00:30:17;19.42;;;12.40;;
53245;SDS011;39569;51.090;-1.786;2023-05-28T00:32:44;17.77;;;12.48;;
53245;SDS011;39569;51.090;-1.786;2023-05-28T00:35:11;15.27;;;12.05;;
53245;SDS011;39569;51.090;-1.786;2023-05-28T00:37:38;22.00;;;13.80;;
53245;SDS011;39569;51.090;-1.786;2023-05-28T00:40:06;21.70;;;14.32;;
53245;SDS011;39569;51.090;-1.786;2023-05-28T00:42:34;25.40;;;13.45;;
53245;SDS011;39569;51.090;-1.786;2023-05-28T00:45:01;15.95;;;13.48;;
53245;SDS011;39569;51.090;-1.786;2023-05-28T00:47:27;16.77;;;13.23;;
53245;SDS011;39569;51.090;-1.786;2023-05-28T00:49:54;17.15;;;13.70;;
53245;SDS011;39569;51.090;-1.786;2023-05-28T00:52:22;18.77;;;14.07;;
53245;SDS011;39569;51.090;-1.786;2023-05-28T00:54:50;21.63;;;8.77;;
53245;SDS011;39569;51.090;-1.786;2023-05-28T00:57:18;20.23;;;14.55;;
53245;SDS011;39569;51.090;-1.786;2023-05-28T00:59:46;18.70;;;13.98;;
53245;SDS011;39569;51.090;-1.786;2023-05-28T01:02:13;20.98;;;13.98;;
53245;SDS011;39569;51.090;-1.786;2023-05-28T01:04:40;19.85;;;13.68;;
53245;SDS011;39569;51.090;-1.786;2023-05-28T01:07:07;20.05;;;13.60;;
53245;SDS011;39569;51.090;-1.786;2023-05-28T01:09:34;21.08;;;13.13;;
53245;SDS011;39569;51.090;-1.786;2023-05-28T01:12:01;19.23;;;14.13;;
53245;SDS011;39569;51.090;-1.786;2023-05-28T01:14:31;19.42;;;12.73;;
53245;SDS011;39569;51.090;-1.786;2023-05-28T01:16:58;23.50;;;14.57;;
53245;SDS011;39569;51.090;-1.786;2023-05-28T01:19:24;26.05;;;14.35;;
53245;SDS011;39569;51.090;-1.786;2023-05-28T01:21:55;15.05;;;12.57;;
53245;SDS011;39569;51.090;-1.786;2023-05-28T01:24:29;19.33;;;14.82;;
53245;SDS011;39569;51.090;-1.786;2023-05-28T01:26:57;17.92;;;13.13;;
53245;SDS011;39569;51.090;-1.786;2023-05-28T01:29:24;18.27;;;13.38;;
53245;SDS011;39569;51.090;-1.786;2023-05-28T01:31:50;18.23;;;13.82;;
53245;SDS011;39569;51.090;-1.786;2023-05-28T01:34:17;22.95;;;14.07;;
53245;SDS011;39569;51.090;-1.786;2023-05-28T01:36:44;17.58;;;14.23;;
53245;SDS011;39569;51.090;-1.786;2023-05-28T01:39:14;17.20;;;13.45;;
53245;SDS011;39569;51.090;-1.786;2023-05-28T01:41:46;20.70;;;14.15;;
53245;SDS011;39569;51.090;-1.786;2023-05-28T01:44:15;15.27;;;12.65;;
53245;SDS011;39569;51.090;-1.786;2023-05-28T01:46:45;22.77;;;13.75;;
53245;SDS011;39569;51.090;-1.786;2023-05-28T01:49:13;19.85;;;15.02;;
53245;SDS011;39569;51.090;-1.786;2023-05-28T01:51:40;32.08;;;15.50;;
53245;SDS011;39569;51.090;-1.786;2023-05-28T01:54:06;15.68;;;13.73;;
53245;SDS011;39569;51.090;-1.786;2023-05-28T01:56:33;16.90;;;12.63;;
53245;SDS011;39569;51.090;-1.786;2023-05-28T01:59:01;20.80;;;15.38;;
53245;SDS011;39569;51.090;-1.786;2023-05-28T02:01:29;17.27;;;14.10;;
53245;SDS011;39569;51.090;-1.786;2023-05-28T02:03:58;17.05;;;12.60;;
53245;SDS011;39569;51.090;-1.786;2023-05-28T02:06:26;16.38;;;13.27;;
53245;SDS011;39569;51.090;-1.786;2023-05-28T02:08:54;26.65;;;12.88;;
53245;SDS011;39569;51.090;-1.786;2023-05-28T02:11:21;22.83;;;13.68;;
53245;SDS011;39569;51.090;-1.786;2023-05-28T02:13:48;19.88;;;14.30;;
53245;SDS011;39569;51.090;-1.786;2023-05-28T02:16:16;25.10;;;13.63;;
53245;SDS011;39569;51.090;-1.786;2023-05-28T02:18:43;13.80;;;12.23;;
53245;SDS011;39569;51.090;-1.786;2023-05-28T02:21:10;14.80;;;12.57;;
53245;SDS011;39569;51.090;-1.786;2023-05-28T02:23:37;14.40;;;12.55;;
53245;SDS011;39569;51.090;-1.786;2023-05-28T02:26:05;15.13;;;13.60;;
53245;SDS011;39569;51.090;-1.786;2023-05-28T02:28:32;21.35;;;13.82;;
53245;SDS011;39569;51.090;-1.786;2023-05-28T02:30:58;27.50;;;14.52;;
53245;SDS011;39569;51.090;-1.786;2023-05-28T02:33:26;17.20;;;13.13;;
53245;SDS011;39569;51.090;-1.786;2023-05-28T02:35:53;14.75;;;13.25;;
53245;SDS011;39569;51.090;-1.786;2023-05-28T02:38:20;14.50;;;12.30;;
53245;SDS011;39569;51.090;-1.786;2023-05-28T02:40:47;21.95;;;15.35;;
53245;SDS011;39569;51.090;-1.786;2023-05-28T02:43:14;17.23;;;14.70;;
53245;SDS011;39569;51.090;-1.786;2023-05-28T02:45:40;15.80;;;12.80;;
53245;SDS011;39569;51.090;-1.786;2023-05-28T02:48:07;17.67;;;13.35;;
53245;SDS011;39569;51.090;-1.786;2023-05-28T02:50:35;7.07;;;5.32;;
53245;SDS011;39569;51.090;-1.786;2023-05-28T02:53:02;7.10;;;5.82;;
53245;SDS011;39569;51.090;-1.786;2023-05-28T02:55:29;19.77;;;14.60;;
53245;SDS011;39569;51.090;-1.786;2023-05-28T02:57:56;16.23;;;14.60;;
53245;SDS011;39569;51.090;-1.786;2023-05-28T03:00:23;19.83;;;12.50;;
53245;SDS011;39569;51.090;-1.786;2023-05-28T03:02:50;18.23;;;13.98;;
53245;SDS011;39569;51.090;-1.786;2023-05-28T03:05:17;10.00;;;6.88;;
53245;SDS011;39569;51.090;-1.786;2023-05-28T03:07:45;14.38;;;12.88;;
53245;SDS011;39569;51.090;-1.786;2023-05-28T03:10:12;22.55;;;13.63;;
53245;SDS011;39569;51.090;-1.786;2023-05-28T03:12:38;9.73;;;6.40;;
53245;SDS011;39569;51.090;-1.786;2023-05-28T03:15:06;13.70;;;12.43;;
53245;SDS011;39569;51.090;-1.786;2023-05-28T03:17:33;19.08;;;13.55;;
53245;SDS011;39569;51.090;-1.786;2023-05-28T03:20:00;24.80;;;6.40;;
53245;SDS011;39569;51.090;-1.786;2023-05-28T03:22:27;16.45;;;14.43;;
53245;SDS011;39569;51.090;-1.786;2023-05-28T03:24:55;16.33;;;14.45;;
53245;SDS011;39569;51.090;-1.786;2023-05-28T03:27:22;24.27;;;15.85;;
53245;SDS011;39569;51.090;-1.786;2023-05-28T03:29:49;21.13;;;13.68;;
53245;SDS011;39569;51.090;-1.786;2023-05-28T03:32:15;22.95;;;15.65;;
53245;SDS011;39569;51.090;-1.786;2023-05-28T03:34:42;5.95;;;5.28;;
53245;SDS011;39569;51.090;-1.786;2023-05-28T03:37:09;21.85;;;15.52;;
53245;SDS011;39569;51.090;-1.786;2023-05-28T03:39:36;9.70;;;7.57;;
53245;SDS011;39569;51.090;-1.786;2023-05-28T03:42:04;18.33;;;15.35;;
53245;SDS011;39569;51.090;-1.786;2023-05-28T03:44:32;17.08;;;15.35;;
53245;SDS011;39569;51.090;-1.786;2023-05-28T03:46:59;19.50;;;14.73;;
53245;SDS011;39569;51.090;-1.786;2023-05-28T03:49:26;21.58;;;15.40;;
53245;SDS011;39569;51.090;-1.786;2023-05-28T03:51:53;18.15;;;8.00;;
53245;SDS011;39569;51.090;-1.786;2023-05-28T03:54:20;17.33;;;15.38;;
53245;SDS011;39569;51.090;-1.786;2023-05-28T03:56:47;17.80;;;14.02;;
53245;SDS011;39569;51.090;-1.786;2023-05-28T03:59:15;9.38;;;6.78;;
53245;SDS011;39569;51.090;-1.786;2023-05-28T04:01:42;29.90;;;17.17;;
53245;SDS011;39569;51.090;-1.786;2023-05-28T04:04:08;16.63;;;6.93;;
53245;SDS011;39569;51.090;-1.786;2023-05-28T04:06:35;18.10;;;7.00;;
53245;SDS011;39569;51.090;-1.786;2023-05-28T04:09:02;18.33;;;14.88;;
53245;SDS011;39569;51.090;-1.786;2023-05-28T04:11:29;28.15;;;14.48;;
53245;SDS011;39569;51.090;-1.786;2023-05-28T04:13:56;24.30;;;16.10;;
53245;SDS011;39569;51.090;-1.786;2023-05-28T04:16:24;31.77;;;16.40;;
53245;SDS011;39569;51.090;-1.786;2023-05-28T04:18:51;10.73;;;8.98;;
53245;SDS011;39569;51.090;-1.786;2023-05-28T04:21:18;29.55;;;17.00;;
53245;SDS011;39569;51.090;-1.786;2023-05-28T04:23:47;18.13;;;8.20;;
53245;SDS011;39569;51.090;-1.786;2023-05-28T04:26:14;19.17;;;16.52;;
53245;SDS011;39569;51.090;-1.786;2023-05-28T04:28:41;29.50;;;16.20;;
53245;SDS011;39569;51.090;-1.786;2023-05-28T04:31:08;30.15;;;17.13;;
53245;SDS011;39569;51.090;-1.786;2023-05-28T04:33:36;10.07;;;6.88;;
53245;SDS011;39569;51.090;-1.786;2023-05-28T04:36:03;18.00;;;7.35;;
53245;SDS011;39569;51.090;-1.786;2023-05-28T04:38:33;29.55;;;17.42;;
53245;SDS011;39569;51.090;-1.786;2023-05-28T04:41:00;23.38;;;16.38;;
53245;SDS011;39569;51.090;-1.786;2023-05-28T04:43:29;20.70;;;17.85;;
53245;SDS011;39569;51.090;-1.786;2023-05-28T04:45:56;22.80;;;18.55;;
53245;SDS011;39569;51.090;-1.786;2023-05-28T04:48:23;18.10;;;16.33;;
53245;SDS011;39569;51.090;-1.786;2023-05-28T04:50:52;23.67;;;18.10;;
53245;SDS011;39569;51.090;-1.786;2023-05-28T04:53:18;21.30;;;9.40;;
53245;SDS011;39569;51.090;-1.786;2023-05-28T04:55:45;27.65;;;7.90;;
53245;SDS011;39569;51.090;-1.786;2023-05-28T04:58:12;35.03;;;18.92;;
53245;SDS011;39569;51.090;-1.786;2023-05-28T05:00:39;26.63;;;18.00;;
53245;SDS011;39569;51.090;-1.786;2023-05-28T05:03:06;7.78;;;6.88;;
53245;SDS011;39569;51.090;-1.786;2023-05-28T05:05:33;21.30;;;17.20;;
53245;SDS011;39569;51.090;-1.786;2023-05-28T05:08:01;19.25;;;17.02;;
53245;SDS011;39569;51.090;-1.786;2023-05-28T05:10:28;8.63;;;7.68;;
53245;SDS011;39569;51.090;-1.786;2023-05-28T05:12:55;25.00;;;18.27;;
53245;SDS011;39569;51.090;-1.786;2023-05-28T05:15:22;25.13;;;17.63;;
53245;SDS011;39569;51.090;-1.786;2023-05-28T05:17:48;27.48;;;17.23;;
53245;SDS011;39569;51.090;-1.786;2023-05-28T05:20:17;25.88;;;18.15;;
53245;SDS011;39569;51.090;-1.786;2023-05-28T05:22:43;47.72;;;19.65;;
53245;SDS011;39569;51.090;-1.786;2023-05-28T05:25:11;24.85;;;17.80;;
53245;SDS011;39569;51.090;-1.786;2023-05-28T05:27:38;30.98;;;19.27;;
53245;SDS011;39569;51.090;-1.786;2023-05-28T05:30:06;27.15;;;18.83;;
53245;SDS011;39569;51.090;-1.786;2023-05-28T05:32:33;21.52;;;18.88;;
53245;SDS011;39569;51.090;-1.786;2023-05-28T05:35:00;27.65;;;18.77;;
53245;SDS011;39569;51.090;-1.786;2023-05-28T05:37:28;31.52;;;17.88;;
53245;SDS011;39569;51.090;-1.786;2023-05-28T05:39:54;20.48;;;16.92;;
53245;SDS011;39569;51.090;-1.786;2023-05-28T05:42:22;19.85;;;16.27;;
53245;SDS011;39569;51.090;-1.786;2023-05-28T05:44:50;21.45;;;16.63;;
53245;SDS011;39569;51.090;-1.786;2023-05-28T05:47:16;20.60;;;16.33;;
53245;SDS011;39569;51.090;-1.786;2023-05-28T05:49:43;25.30;;;17.90;;
53245;SDS011;39569;51.090;-1.786;2023-05-28T05:52:10;18.40;;;16.50;;
53245;SDS011;39569;51.090;-1.786;2023-05-28T05:54:37;18.52;;;15.85;;
53245;SDS011;39569;51.090;-1.786;2023-05-28T05:57:04;22.58;;;16.33;;
53245;SDS011;39569;51.090;-1.786;2023-05-28T05:59:32;22.85;;;14.82;;
53245;SDS011;39569;51.090;-1.786;2023-05-28T06:01:59;18.83;;;15.25;;
53245;SDS011;39569;51.090;-1.786;2023-05-28T06:04:25;19.10;;;14.98;;
53245;SDS011;39569;51.090;-1.786;2023-05-28T06:06:58;21.10;;;15.82;;
53245;SDS011;39569;51.090;-1.786;2023-05-28T06:09:27;20.45;;;14.85;;
53245;SDS011;39569;51.090;-1.786;2023-05-28T06:11:54;17.75;;;14.02;;
53245;SDS011;39569;51.090;-1.786;2023-05-28T06:14:21;16.90;;;14.02;;
53245;SDS011;39569;51.090;-1.786;2023-05-28T06:16:49;16.65;;;13.48;;
53245;SDS011;39569;51.090;-1.786;2023-05-28T06:19:16;28.30;;;14.75;;
53245;SDS011;39569;51.090;-1.786;2023-05-28T06:21:43;15.73;;;12.82;;
53245;SDS011;39569;51.090;-1.786;2023-05-28T06:24:10;14.43;;;12.63;;
53245;SDS011;39569;51.090;-1.786;2023-05-28T06:26:37;16.52;;;13.75;;
53245;SDS011;39569;51.090;-1.786;2023-05-28T06:29:04;17.65;;;13.98;;
53245;SDS011;39569;51.090;-1.786;2023-05-28T06:31:33;22.98;;;14.23;;
53245;SDS011;39569;51.090;-1.786;2023-05-28T06:34:01;22.00;;;13.43;;
53245;SDS011;39569;51.090;-1.786;2023-05-28T06:36:28;15.43;;;11.52;;
53245;SDS011;39569;51.090;-1.786;2023-05-28T06:38:55;14.85;;;11.48;;
53245;SDS011;39569;51.090;-1.786;2023-05-28T06:41:22;16.50;;;11.95;;
53245;SDS011;39569;51.090;-1.786;2023-05-28T06:43:49;13.98;;;10.20;;
53245;SDS011;39569;51.090;-1.786;2023-05-28T06:46:15;12.05;;;10.20;;
53245;SDS011;39569;51.090;-1.786;2023-05-28T06:48:42;14.55;;;10.25;;
53245;SDS011;39569;51.090;-1.786;2023-05-28T06:51:10;16.63;;;10.38;;
53245;SDS011;39569;51.090;-1.786;2023-05-28T06:53:37;10.75;;;9.20;;
53245;SDS011;39569;51.090;-1.786;2023-05-28T06:56:04;12.13;;;8.85;;
53245;SDS011;39569;51.090;-1.786;2023-05-28T06:58:31;9.75;;;8.45;;
53245;SDS011;39569;51.090;-1.786;2023-05-28T07:00:58;13.07;;;9.18;;
53245;SDS011;39569;51.090;-1.786;2023-05-28T07:03:26;13.52;;;9.35;;
53245;SDS011;39569;51.090;-1.786;2023-05-28T07:05:53;16.30;;;9.60;;
53245;SDS011;39569;51.090;-1.786;2023-05-28T07:08:21;9.35;;;8.27;;
53245;SDS011;39569;51.090;-1.786;2023-05-28T07:10:49;9.27;;;8.40;;
53245;SDS011;39569;51.090;-1.786;2023-05-28T07:13:16;15.65;;;9.35;;
53245;SDS011;39569;51.090;-1.786;2023-05-28T07:15:42;11.85;;;9.27;;
53245;SDS011;39569;51.090;-1.786;2023-05-28T07:18:09;11.50;;;8.88;;
53245;SDS011;39569;51.090;-1.786;2023-05-28T07:20:36;12.98;;;9.02;;
53245;SDS011;39569;51.090;-1.786;2023-05-28T07:23:03;18.83;;;8.02;;
53245;SDS011;39569;51.090;-1.786;2023-05-28T07:25:31;10.55;;;8.00;;
53245;SDS011;39569;51.090;-1.786;2023-05-28T07:27:58;9.90;;;8.20;;
53245;SDS011;39569;51.090;-1.786;2023-05-28T07:30:25;11.45;;;7.70;;
53245;SDS011;39569;51.090;-1.786;2023-05-28T07:32:51;10.65;;;8.13;;
53245;SDS011;39569;51.090;-1.786;2023-05-28T07:35:18;16.98;;;7.65;;
53245;SDS011;39569;51.090;-1.786;2023-05-28T07:37:45;11.27;;;7.18;;
53245;SDS011;39569;51.090;-1.786;2023-05-28T07:40:12;10.38;;;8.35;;
53245;SDS011;39569;51.090;-1.786;2023-05-28T07:42:40;8.50;;;6.18;;
53245;SDS011;39569;51.090;-1.786;2023-05-28T07:45:07;7.32;;;6.63;;
53245;SDS011;39569;51.090;-1.786;2023-05-28T07:47:35;9.55;;;7.43;;
53245;SDS011;39569;51.090;-1.786;2023-05-28T07:50:02;9.18;;;7.85;;
53245;SDS011;39569;51.090;-1.786;2023-05-28T07:52:29;10.73;;;6.53;;
53245;SDS011;39569;51.090;-1.786;2023-05-28T07:54:56;10.27;;;7.03;;
53245;SDS011;39569;51.090;-1.786;2023-05-28T07:57:23;8.30;;;6.97;;
53245;SDS011;39569;51.090;-1.786;2023-05-28T07:59:51;9.85;;;6.90;;
53245;SDS011;39569;51.090;-1.786;2023-05-28T08:02:18;18.48;;;7.25;;
53245;SDS011;39569;51.090;-1.786;2023-05-28T08:04:45;10.07;;;6.85;;
53245;SDS011;39569;51.090;-1.786;2023-05-28T08:07:12;10.75;;;6.95;;
53245;SDS011;39569;51.090;-1.786;2023-05-28T08:09:39;11.90;;;7.03;;
53245;SDS011;39569;51.090;-1.786;2023-05-28T08:12:07;7.97;;;7.18;;
53245;SDS011;39569;51.090;-1.786;2023-05-28T08:14:34;13.75;;;7.57;;
53245;SDS011;39569;51.090;-1.786;2023-05-28T08:17:02;10.18;;;6.75;;
53245;SDS011;39569;51.090;-1.786;2023-05-28T08:19:29;7.68;;;6.28;;
53245;SDS011;39569;51.090;-1.786;2023-05-28T08:21:56;23.38;;;6.78;;
53245;SDS011;39569;51.090;-1.786;2023-05-28T08:24:23;6.75;;;5.53;;
53245;SDS011;39569;51.090;-1.786;2023-05-28T08:26:50;8.27;;;5.45;;
53245;SDS011;39569;51.090;-1.786;2023-05-28T08:29:17;11.00;;;5.45;;
53245;SDS011;39569;51.090;-1.786;2023-05-28T08:31:43;7.80;;;6.30;;
53245;SDS011;39569;51.090;-1.786;2023-05-28T08:34:12;8.02;;;6.18;;
53245;SDS011;39569;51.090;-1.786;2023-05-28T08:36:39;9.77;;;6.18;;
53245;SDS011;39569;51.090;-1.786;2023-05-28T08:39:05;8.77;;;5.68;;
53245;SDS011;39569;51.090;-1.786;2023-05-28T08:41:33;6.80;;;5.43;;
53245;SDS011;39569;51.090;-1.786;2023-05-28T08:44:00;12.40;;;6.55;;
53245;SDS011;39569;51.090;-1.786;2023-05-28T08:46:27;7.43;;;5.65;;
53245;SDS011;39569;51.090;-1.786;2023-05-28T08:48:57;8.70;;;5.38;;
53245;SDS011;39569;51.090;-1.786;2023-05-28T08:51:26;11.90;;;5.90;;
53245;SDS011;39569;51.090;-1.786;2023-05-28T08:53:58;11.35;;;6.35;;
53245;SDS011;39569;51.090;-1.786;2023-05-28T08:56:25;6.18;;;4.75;;
53245;SDS011;39569;51.090;-1.786;2023-05-28T08:58:52;9.07;;;5.78;;
53245;SDS011;39569;51.090;-1.786;2023-05-28T09:01:20;4.85;;;4.40;;
53245;SDS011;39569;51.090;-1.786;2023-05-28T09:03:46;6.57;;;5.53;;
53245;SDS011;39569;51.090;-1.786;2023-05-28T09:06:13;8.00;;;4.78;;
53245;SDS011;39569;51.090;-1.786;2023-05-28T09:08:43;12.35;;;6.22;;
53245;SDS011;39569;51.090;-1.786;2023-05-28T09:11:11;7.13;;;5.07;;
53245;SDS011;39569;51.090;-1.786;2023-05-28T09:13:41;5.97;;;5.10;;
53245;SDS011;39569;51.090;-1.786;2023-05-28T09:16:08;7.40;;;5.00;;
53245;SDS011;39569;51.090;-1.786;2023-05-28T09:18:35;6.15;;;3.65;;
53245;SDS011;39569;51.090;-1.786;2023-05-28T09:21:06;6.40;;;5.10;;
53245;SDS011;39569;51.090;-1.786;2023-05-28T09:23:35;10.80;;;5.07;;
53245;SDS011;39569;51.090;-1.786;2023-05-28T09:26:08;6.00;;;5.15;;
53245;SDS011;39569;51.090;-1.786;2023-05-28T09:28:35;8.30;;;4.65;;
53245;SDS011;39569;51.090;-1.786;2023-05-28T09:31:06;6.05;;;5.32;;
53245;SDS011;39569;51.090;-1.786;2023-05-28T09:33:33;6.45;;;5.18;;
53245;SDS011;39569;51.090;-1.786;2023-05-28T09:36:01;6.65;;;4.88;;
53245;SDS011;39569;51.090;-1.786;2023-05-28T09:38:37;6.22;;;5.22;;
53245;SDS011;39569;51.090;-1.786;2023-05-28T09:41:05;6.78;;;4.60;;
53245;SDS011;39569;51.090;-1.786;2023-05-28T09:43:45;7.53;;;5.40;;
53245;SDS011;39569;51.090;-1.786;2023-05-28T09:46:12;15.32;;;4.75;;
53245;SDS011;39569;51.090;-1.786;2023-05-28T09:48:38;8.73;;;5.15;;
53245;SDS011;39569;51.090;-1.786;2023-05-28T09:51:05;5.95;;;4.13;;
53245;SDS011;39569;51.090;-1.786;2023-05-28T09:53:36;6.45;;;4.10;;
53245;SDS011;39569;51.090;-1.786;2023-05-28T09:56:09;6.35;;;4.93;;
53245;SDS011;39569;51.090;-1.786;2023-05-28T09:58:38;10.18;;;5.55;;
53245;SDS011;39569;51.090;-1.786;2023-05-28T10:01:11;4.45;;;3.88;;
53245;SDS011;39569;51.090;-1.786;2023-05-28T10:03:42;5.05;;;4.38;;
53245;SDS011;39569;51.090;-1.786;2023-05-28T10:06:11;7.03;;;4.53;;
53245;SDS011;39569;51.090;-1.786;2023-05-28T10:08:42;6.50;;;4.05;;
53245;SDS011;39569;51.090;-1.786;2023-05-28T10:11:13;5.63;;;4.82;;
53245;SDS011;39569;51.090;-1.786;2023-05-28T10:13:42;8.25;;;4.68;;
53245;SDS011;39569;51.090;-1.786;2023-05-28T10:16:11;7.22;;;4.55;;
53245;SDS011;39569;51.090;-1.786;2023-05-28T10:18:38;19.20;;;4.40;;
53245;SDS011;39569;51.090;-1.786;2023-05-28T10:21:08;8.82;;;4.72;;
53245;SDS011;39569;51.090;-1.786;2023-05-28T10:23:36;4.65;;;3.97;;
53245;SDS011;39569;51.090;-1.786;2023-05-28T10:26:04;6.30;;;3.85;;
53245;SDS011;39569;51.090;-1.786;2023-05-28T10:28:30;7.13;;;4.13;;
53245;SDS011;39569;51.090;-1.786;2023-05-28T10:31:01;5.38;;;4.82;;
53245;SDS011;39569;51.090;-1.786;2023-05-28T10:33:31;5.43;;;3.70;;
53245;SDS011;39569;51.090;-1.786;2023-05-28T10:35:59;5.82;;;4.53;;
53245;SDS011;39569;51.090;-1.786;2023-05-28T10:38:26;6.20;;;4.43;;
53245;SDS011;39569;51.090;-1.786;2023-05-28T10:40:59;7.88;;;3.88;;
53245;SDS011;39569;51.090;-1.786;2023-05-28T10:43:40;3.70;;;3.10;;
53245;SDS011;39569;51.090;-1.786;2023-05-28T10:46:11;5.70;;;4.63;;
53245;SDS011;39569;51.090;-1.786;2023-05-28T10:48:43;5.07;;;4.32;;
53245;SDS011;39569;51.090;-1.786;2023-05-28T10:51:42;7.03;;;4.22;;
53245;SDS011;39569;51.090;-1.786;2023-05-28T10:54:14;6.40;;;3.67;;
53245;SDS011;39569;51.090;-1.786;2023-05-28T10:59:47;4.90;;;4.40;;
53245;SDS011;39569;51.090;-1.786;2023-05-28T11:02:20;8.48;;;4.55;;
53245;SDS011;39569;51.090;-1.786;2023-05-28T11:04:51;5.43;;;4.47;;
53245;SDS011;39569;51.090;-1.786;2023-05-28T11:07:20;7.65;;;4.47;;
53245;SDS011;39569;51.090;-1.786;2023-05-28T11:09:48;10.23;;;5.05;;
53245;SDS011;39569;51.090;-1.786;2023-05-28T11:12:17;4.15;;;3.75;;
53245;SDS011;39569;51.090;-1.786;2023-05-28T11:14:45;3.80;;;3.22;;
53245;SDS011;39569;51.090;-1.786;2023-05-28T11:17:13;4.90;;;3.97;;
53245;SDS011;39569;51.090;-1.786;2023-05-28T11:19:41;4.68;;;3.67;;
53245;SDS011;39569;51.090;-1.786;2023-05-28T11:22:09;4.13;;;3.67;;
53245;SDS011;39569;51.090;-1.786;2023-05-28T11:24:49;8.23;;;5.25;;
53245;SDS011;39569;51.090;-1.786;2023-05-28T11:27:20;9.85;;;3.67;;
53245;SDS011;39569;51.090;-1.786;2023-05-28T11:29:48;6.88;;;4.03;;
53245;SDS011;39569;51.090;-1.786;2023-05-28T11:32:17;5.85;;;3.97;;
53245;SDS011;39569;51.090;-1.786;2023-05-28T11:34:44;3.83;;;3.53;;
53245;SDS011;39569;51.090;-1.786;2023-05-28T11:37:14;5.00;;;4.50;;
53245;SDS011;39569;51.090;-1.786;2023-05-28T11:39:47;4.68;;;3.30;;
53245;SDS011;39569;51.090;-1.786;2023-05-28T11:42:15;5.85;;;3.42;;
53245;SDS011;39569;51.090;-1.786;2023-05-28T11:44:45;7.78;;;4.10;;
53245;SDS011;39569;51.090;-1.786;2023-05-28T11:47:12;6.22;;;3.38;;
53245;SDS011;39569;51.090;-1.786;2023-05-28T11:49:39;8.07;;;4.28;;
53245;SDS011;39569;51.090;-1.786;2023-05-28T11:52:09;5.10;;;3.15;;
53245;SDS011;39569;51.090;-1.786;2023-05-28T11:54:37;5.25;;;4.30;;
53245;SDS011;39569;51.090;-1.786;2023-05-28T11:57:05;4.78;;;3.08;;
53245;SDS011;39569;51.090;-1.786;2023-05-28T11:59:32;4.03;;;3.65;;
53245;SDS011;39569;51.090;-1.786;2023-05-28T12:02:09;5.60;;;3.80;;
53245;SDS011;39569;51.090;-1.786;2023-05-28T12:04:37;6.10;;;3.90;;
53245;SDS011;39569;51.090;-1.786;2023-05-28T12:07:04;6.65;;;4.25;;
53245;SDS011;39569;51.090;-1.786;2023-05-28T12:09:31;3.67;;;3.15;;
53245;SDS011;39569;51.090;-1.786;2023-05-28T12:12:02;5.45;;;3.50;;
53245;SDS011;39569;51.090;-1.786;2023-05-28T12:14:35;6.05;;;4.40;;
53245;SDS011;39569;51.090;-1.786;2023-05-28T12:17:06;7.75;;;4.35;;
53245;SDS011;39569;51.090;-1.786;2023-05-28T12:19:35;5.65;;;4.85;;
53245;SDS011;39569;51.090;-1.786;2023-05-28T12:22:03;4.95;;;4.45;;
53245;SDS011;39569;51.090;-1.786;2023-05-28T12:24:31;12.02;;;3.60;;
53245;SDS011;39569;51.090;-1.786;2023-05-28T12:26:58;4.63;;;3.42;;
53245;SDS011;39569;51.090;-1.786;2023-05-28T12:29:26;10.98;;;3.88;;
53245;SDS011;39569;51.090;-1.786;2023-05-28T12:31:57;4.32;;;3.88;;
53245;SDS011;39569;51.090;-1.786;2023-05-28T12:34:24;4.63;;;3.70;;
53245;SDS011;39569;51.090;-1.786;2023-05-28T12:36:51;5.68;;;4.43;;
53245;SDS011;39569;51.090;-1.786;2023-05-28T12:39:18;4.47;;;3.72;;
53245;SDS011;39569;51.090;-1.786;2023-05-28T12:41:45;3.78;;;3.38;;
53245;SDS011;39569;51.090;-1.786;2023-05-28T12:44:12;6.07;;;4.15;;
53245;SDS011;39569;51.090;-1.786;2023-05-28T12:46:40;9.15;;;4.60;;
53245;SDS011;39569;51.090;-1.786;2023-05-28T12:49:07;13.30;;;6.47;;
53245;SDS011;39569;51.090;-1.786;2023-05-28T12:51:34;5.20;;;4.55;;
53245;SDS011;39569;51.090;-1.786;2023-05-28T12:54:02;3.97;;;3.67;;
53245;SDS011;39569;51.090;-1.786;2023-05-28T12:56:28;6.63;;;5.47;;
53245;SDS011;39569;51.090;-1.786;2023-05-28T12:58:55;5.63;;;4.38;;
53245;SDS011;39569;51.090;-1.786;2023-05-28T13:01:22;9.13;;;4.80;;
53245;SDS011;39569;51.090;-1.786;2023-05-28T13:03:51;6.88;;;4.30;;
53245;SDS011;39569;51.090;-1.786;2023-05-28T13:06:18;5.82;;;4.40;;
53245;SDS011;39569;51.090;-1.786;2023-05-28T13:08:45;5.30;;;3.97;;
53245;SDS011;39569;51.090;-1.786;2023-05-28T13:11:12;6.22;;;4.45;;
53245;SDS011;39569;51.090;-1.786;2023-05-28T13:13:38;8.77;;;6.97;;
53245;SDS011;39569;51.090;-1.786;2023-05-28T13:16:05;8.15;;;5.25;;
53245;SDS011;39569;51.090;-1.786;2023-05-28T13:18:32;5.55;;;5.05;;
53245;SDS011;39569;51.090;-1.786;2023-05-28T13:21:00;5.55;;;4.93;;
53245;SDS011;39569;51.090;-1.786;2023-05-28T13:23:27;5.35;;;4.57;;
53245;SDS011;39569;51.090;-1.786;2023-05-28T13:25:54;8.68;;;3.92;;
53245;SDS011;39569;51.090;-1.786;2023-05-28T13:28:21;11.77;;;4.15;;
53245;SDS011;39569;51.090;-1.786;2023-05-28T13:30:47;5.85;;;4.15;;
53245;SDS011;39569;51.090;-1.786;2023-05-28T13:33:15;4.03;;;3.65;;
53245;SDS011;39569;51.090;-1.786;2023-05-28T13:35:42;7.70;;;4.47;;
53245;SDS011;39569;51.090;-1.786;2023-05-28T13:38:10;7.85;;;5.30;;
53245;SDS011;39569;51.090;-1.786;2023-05-28T13:40:37;17.55;;;15.75;;
53245;SDS011;39569;51.090;-1.786;2023-05-28T13:43:04;6.88;;;6.00;;
53245;SDS011;39569;51.090;-1.786;2023-05-28T13:45:32;5.50;;;4.43;;
53245;SDS011;39569;51.090;-1.786;2023-05-28T13:47:59;5.13;;;4.72;;
53245;SDS011;39569;51.090;-1.786;2023-05-28T13:50:27;6.70;;;4.93;;
53245;SDS011;39569;51.090;-1.786;2023-05-28T13:52:54;5.75;;;5.18;;
53245;SDS011;39569;51.090;-1.786;2023-05-28T13:55:23;7.72;;;5.43;;
53245;SDS011;39569;51.090;-1.786;2023-05-28T13:57:50;5.60;;;4.40;;
53245;SDS011;39569;51.090;-1.786;2023-05-28T14:00:17;4.85;;;4.45;;
53245;SDS011;39569;51.090;-1.786;2023-05-28T14:02:46;7.88;;;5.80;;
53245;SDS011;39569;51.090;-1.786;2023-05-28T14:05:13;6.00;;;4.80;;
53245;SDS011;39569;51.090;-1.786;2023-05-28T14:07:40;13.63;;;6.05;;
53245;SDS011;39569;51.090;-1.786;2023-05-28T14:10:07;5.07;;;3.80;;
53245;SDS011;39569;51.090;-1.786;2023-05-28T14:12:36;4.82;;;4.32;;
53245;SDS011;39569;51.090;-1.786;2023-05-28T14:15:03;4.22;;;3.83;;
53245;SDS011;39569;51.090;-1.786;2023-05-28T14:17:30;6.85;;;4.90;;
53245;SDS011;39569;51.090;-1.786;2023-05-28T14:19:57;9.30;;;5.68;;
53245;SDS011;39569;51.090;-1.786;2023-05-28T14:22:24;5.28;;;4.63;;
53245;SDS011;39569;51.090;-1.786;2023-05-28T14:24:51;7.40;;;5.07;;
53245;SDS011;39569;51.090;-1.786;2023-05-28T14:27:18;7.75;;;5.18;;